Time;durP1;ratioP1;P1;durP2;ratioP2;P2;SDS_P1;SDS_P2;PMS_P1;PMS_P2;Temp;Humidity;BMP_temperature;BMP_pressure;BME280_temperature;BME280_humidity;BME280_pressure;Samples;Min_cycle;Max_cycle;Signal;HPM_P1;HPM_P2
2023/08/22 00:01:40;;;;;;;24.63;22.02;;;21.50;99.90;;;;;;5024249;28;20037;-78
2023/08/22 00:04:08;;;;;;;26.70;23.75;;;21.50;99.90;;;;;;5027823;28;20033;-77
2023/08/22 00:06:35;;;;;;;25.88;22.77;;;21.40;99.90;;;;;;5024942;28;20041;-76
2023/08/22 00:09:03;;;;;;;29.88;23.55;;;21.40;99.90;;;;;;5022399;28;20124;-77
2023/08/22 00:11:33;;;;;;;30.35;25.80;;;21.30;99.90;;;;;;5038876;28;20056;-77
2023/08/22 00:14:02;;;;;;;27.63;24.65;;;21.20;99.90;;;;;;5041678;28;20073;-77
2023/08/22 00:16:29;;;;;;;26.85;24.02;;;21.10;99.90;;;;;;5049812;28;20042;-78
2023/08/22 00:18:56;;;;;;;28.10;24.17;;;21.10;99.90;;;;;;5051454;28;20071;-78
2023/08/22 00:21:25;;;;;;;27.42;24.52;;;21.00;99.90;;;;;;5041161;28;20312;-78
2023/08/22 00:23:52;;;;;;;25.70;23.10;;;21.10;99.90;;;;;;5037949;28;20036;-78
2023/08/22 00:26:20;;;;;;;26.80;23.77;;;21.10;99.90;;;;;;5049382;28;20050;-77
2023/08/22 00:28:48;;;;;;;26.10;23.50;;;21.10;99.90;;;;;;5038973;28;20235;-77
2023/08/22 00:31:16;;;;;;;26.88;24.08;;;21.10;99.90;;;;;;5038784;28;20048;-78
2023/08/22 00:33:44;;;;;;;27.30;23.60;;;21.00;99.90;;;;;;5038709;28;20166;-78
2023/08/22 00:36:11;;;;;;;26.83;24.00;;;21.10;99.90;;;;;;5041330;28;20049;-78
2023/08/22 00:38:39;;;;;;;30.63;24.17;;;21.00;99.90;;;;;;5057161;28;20124;-78
2023/08/22 00:41:18;;;;;;;26.77;22.27;;;20.90;99.90;;;;;;5040664;28;20064;-78
2023/08/22 00:43:46;;;;;;;25.42;22.33;;;20.80;99.90;;;;;;5059731;28;20075;-77
2023/08/22 00:46:16;;;;;;;24.08;21.73;;;20.70;99.90;;;;;;5029791;28;20053;-78
2023/08/22 00:48:44;;;;;;;24.13;21.75;;;20.70;99.90;;;;;;5033669;28;20139;-78
2023/08/22 00:51:12;;;;;;;25.17;22.48;;;20.60;99.90;;;;;;5040649;28;20053;-79
2023/08/22 00:53:40;;;;;;;25.23;22.52;;;20.60;99.90;;;;;;5041723;28;20459;-77
2023/08/22 00:56:09;;;;;;;24.55;21.42;;;20.60;99.90;;;;;;5039629;28;20068;-77
2023/08/22 00:58:38;;;;;;;24.33;21.85;;;20.60;99.90;;;;;;5054390;28;20048;-77
2023/08/22 01:01:05;;;;;;;38.80;34.05;;;20.70;99.90;;;;;;5028166;28;20044;-77
2023/08/22 01:03:34;;;;;;;25.98;23.17;;;20.70;99.90;;;;;;5042206;28;20060;-76
2023/08/22 01:06:09;;;;;;;24.30;21.80;;;20.70;99.90;;;;;;5029226;28;20130;-78
2023/08/22 01:08:39;;;;;;;24.35;21.75;;;20.80;99.90;;;;;;5026258;28;20044;-78
2023/08/22 01:11:13;;;;;;;25.58;22.88;;;20.70;99.90;;;;;;5026741;28;20838;-78
2023/08/22 01:13:43;;;;;;;26.90;23.58;;;20.70;99.90;;;;;;5027304;28;20525;-77
2023/08/22 01:16:11;;;;;;;26.55;23.85;;;20.70;99.90;;;;;;5027601;28;20037;-78
2023/08/22 01:18:40;;;;;;;26.55;23.90;;;20.60;99.90;;;;;;5037529;28;20577;-79
2023/08/22 01:21:08;;;;;;;28.25;24.15;;;20.60;99.90;;;;;;5052780;28;20464;-78
2023/08/22 01:23:37;;;;;;;25.20;22.73;;;20.60;99.90;;;;;;5027665;28;20052;-77
2023/08/22 01:26:04;;;;;;;27.38;24.50;;;20.60;99.90;;;;;;5024948;28;20175;-78
2023/08/22 01:28:40;;;;;;;26.00;22.85;;;20.50;99.90;;;;;;5026048;28;20041;-78
2023/08/22 01:31:16;;;;;;;25.83;22.75;;;20.50;99.90;;;;;;5035649;28;20049;-78
2023/08/22 01:33:49;;;;;;;29.35;23.88;;;20.60;99.90;;;;;;5043839;28;20045;-78
2023/08/22 01:36:19;;;;;;;29.15;24.63;;;20.50;99.90;;;;;;5037901;28;20049;-77
2023/08/22 01:38:50;;;;;;;29.60;24.52;;;20.60;99.90;;;;;;5026853;28;20037;-77
2023/08/22 01:41:19;;;;;;;26.77;23.88;;;20.50;99.90;;;;;;5024755;28;20132;-77
2023/08/22 01:43:46;;;;;;;26.83;22.90;;;20.40;99.90;;;;;;5051117;28;20488;-78
2023/08/22 01:46:13;;;;;;;25.02;22.45;;;20.40;99.90;;;;;;5026137;28;20049;-77
2023/08/22 01:48:41;;;;;;;27.50;23.83;;;20.40;99.90;;;;;;5026303;28;20633;-76
2023/08/22 01:51:09;;;;;;;25.38;22.67;;;20.40;99.90;;;;;;5048781;28;20052;-78
2023/08/22 01:53:36;;;;;;;29.90;23.98;;;20.30;99.90;;;;;;5026455;28;20052;-78
2023/08/22 01:56:05;;;;;;;25.25;22.60;;;20.20;99.90;;;;;;5027602;28;20135;-77
2023/08/22 01:58:32;;;;;;;26.23;23.48;;;20.10;99.90;;;;;;5028293;28;20045;-77
2023/08/22 02:01:00;;;;;;;26.55;23.67;;;20.00;99.90;;;;;;5026391;28;20053;-78
2023/08/22 02:03:27;;;;;;;24.73;22.25;;;20.10;99.90;;;;;;5037883;28;20049;-77
2023/08/22 02:05:55;;;;;;;28.13;24.30;;;20.10;99.90;;;;;;5036634;28;20041;-76
2023/08/22 02:08:23;;;;;;;27.92;24.90;;;20.10;99.90;;;;;;5039748;28;20065;-76
2023/08/22 02:10:52;;;;;;;32.10;26.33;;;20.10;99.90;;;;;;5036727;28;20049;-78
2023/08/22 02:13:21;;;;;;;30.58;26.95;;;20.00;99.90;;;;;;5028472;28;20425;-77
2023/08/22 02:15:48;;;;;;;32.28;26.38;;;20.00;99.90;;;;;;5026224;28;20420;-77
2023/08/22 02:18:16;;;;;;;29.45;26.23;;;20.00;99.90;;;;;;5025481;28;20136;-78
2023/08/22 02:20:44;;;;;;;30.27;24.73;;;20.00;99.90;;;;;;5036869;28;20045;-77
2023/08/22 02:23:11;;;;;;;28.30;25.23;;;19.90;99.90;;;;;;5025114;28;20095;-77
2023/08/22 02:25:39;;;;;;;30.20;25.85;;;19.90;99.90;;;;;;5024883;28;20076;-77
2023/08/22 02:28:06;;;;;;;26.45;23.73;;;19.90;99.90;;;;;;5037529;28;20038;-78
2023/08/22 02:30:35;;;;;;;25.55;22.95;;;19.90;99.90;;;;;;5037121;28;20049;-77
2023/08/22 02:33:04;;;;;;;26.88;23.95;;;19.90;99.90;;;;;;5026260;28;20528;-77
2023/08/22 02:35:32;;;;;;;26.80;24.10;;;19.80;99.90;;;;;;5025371;28;20083;-78
2023/08/22 02:37:59;;;;;;;28.00;25.35;;;19.70;99.90;;;;;;5038522;28;20041;-78
2023/08/22 02:40:27;;;;;;;27.92;25.13;;;19.70;99.90;;;;;;5026420;28;20056;-78
2023/08/22 02:42:54;;;;;;;25.75;22.98;;;19.60;99.90;;;;;;5026841;28;20136;-78
2023/08/22 02:45:22;;;;;;;25.88;23.48;;;19.70;99.90;;;;;;5036415;28;20150;-78
2023/08/22 02:47:50;;;;;;;27.63;24.35;;;19.70;99.90;;;;;;5036811;28;20068;-78
2023/08/22 02:50:19;;;;;;;28.83;24.52;;;19.90;99.90;;;;;;5026762;28;20128;-78
2023/08/22 02:52:46;;;;;;;32.75;25.95;;;19.80;99.90;;;;;;5039169;28;20091;-78
2023/08/22 02:55:16;;;;;;;31.50;27.55;;;19.80;99.90;;;;;;5035955;28;20160;-78
2023/08/22 02:57:44;;;;;;;30.42;27.10;;;19.60;99.90;;;;;;5024832;28;20041;-78
2023/08/22 03:00:13;;;;;;;33.80;29.17;;;19.50;99.90;;;;;;5026723;28;20694;-77
2023/08/22 03:02:41;;;;;;;30.25;26.85;;;19.60;99.90;;;;;;5033345;28;20417;-78
2023/08/22 03:05:12;;;;;;;31.13;27.83;;;19.70;99.90;;;;;;5060584;28;20046;-77
2023/08/22 03:07:41;;;;;;;29.13;26.08;;;19.60;99.90;;;;;;5049088;28;20052;-77
2023/08/22 03:10:12;;;;;;;29.08;25.95;;;19.60;99.90;;;;;;5041591;28;20044;-77
2023/08/22 03:12:39;;;;;;;33.40;29.45;;;19.60;99.90;;;;;;5051677;22;20296;-77
2023/08/22 03:15:09;;;;;;;33.45;25.77;;;19.60;99.90;;;;;;5043815;28;20041;-75
2023/08/22 03:17:40;;;;;;;29.23;25.52;;;19.60;99.90;;;;;;5056023;28;20037;-76
2023/08/22 03:20:10;;;;;;;32.08;27.95;;;19.70;99.90;;;;;;5058341;28;20108;-75
2023/08/22 03:22:39;;;;;;;33.95;29.30;;;19.70;99.90;;;;;;5035265;28;20045;-75
2023/08/22 03:25:08;;;;;;;34.33;28.98;;;19.60;99.90;;;;;;5047848;28;20112;-75
2023/08/22 03:27:39;;;;;;;30.42;26.35;;;19.50;99.90;;;;;;5027285;28;20041;-76
2023/08/22 03:30:07;;;;;;;34.08;30.50;;;19.50;99.90;;;;;;5024980;28;20050;-77
2023/08/22 03:32:36;;;;;;;32.53;29.10;;;19.40;99.90;;;;;;5026220;28;20042;-76
2023/08/22 03:35:07;;;;;;;37.97;30.42;;;19.40;99.90;;;;;;5022451;28;20121;-75
2023/08/22 03:37:40;;;;;;;31.70;27.17;;;19.30;99.90;;;;;;5019484;28;20064;-75
2023/08/22 03:40:09;;;;;;;31.92;28.65;;;19.30;99.90;;;;;;5019508;28;20033;-77
2023/08/22 03:42:37;;;;;;;32.00;28.10;;;19.30;99.90;;;;;;5019427;28;20064;-77
2023/08/22 03:45:08;;;;;;;29.98;26.88;;;19.30;99.90;;;;;;5018863;28;20046;-75
2023/08/22 03:47:37;;;;;;;30.30;26.63;;;19.40;99.90;;;;;;5020717;28;20056;-80
2023/08/22 03:50:06;;;;;;;27.58;24.73;;;19.40;99.90;;;;;;5018341;28;20049;-78
2023/08/22 03:52:34;;;;;;;27.73;24.58;;;19.50;99.90;;;;;;5020940;28;20038;-77
2023/08/22 03:55:05;;;;;;;27.63;24.70;;;19.50;99.90;;;;;;5017675;28;20042;-78
2023/08/22 03:57:33;;;;;;;27.15;24.45;;;19.40;99.90;;;;;;5026969;28;20037;-77
2023/08/22 04:00:01;;;;;;;28.67;25.70;;;19.40;99.90;;;;;;5031159;28;20048;-76
2023/08/22 04:02:30;;;;;;;28.38;25.63;;;19.50;99.90;;;;;;5016080;28;20128;-75
2023/08/22 04:04:59;;;;;;;27.75;24.85;;;19.40;99.90;;;;;;5017560;28;20061;-77
2023/08/22 04:07:28;;;;;;;26.63;23.65;;;19.30;99.90;;;;;;5017582;28;20038;-78
2023/08/22 04:09:55;;;;;;;28.05;24.63;;;19.30;99.90;;;;;;5018162;28;20546;-79
2023/08/22 04:12:24;;;;;;;28.67;25.63;;;19.30;99.90;;;;;;5046733;28;20084;-77
2023/08/22 04:14:51;;;;;;;27.90;25.13;;;19.20;99.90;;;;;;5058849;28;20037;-78
2023/08/22 04:17:21;;;;;;;28.80;25.77;;;19.20;99.90;;;;;;5039959;28;20041;-77
2023/08/22 04:19:48;;;;;;;68.80;30.77;;;19.20;99.90;;;;;;5059155;28;20050;-78
2023/08/22 04:22:17;;;;;;;26.30;23.52;;;19.20;99.90;;;;;;5042712;28;20037;-76
2023/08/22 04:24:45;;;;;;;27.98;24.83;;;19.40;99.90;;;;;;5041547;28;20051;-78
2023/08/22 04:27:13;;;;;;;32.40;26.15;;;19.50;99.90;;;;;;5041428;28;20055;-77
2023/08/22 04:29:42;;;;;;;29.08;24.08;;;19.70;99.90;;;;;;5061894;28;20135;-75
2023/08/22 04:32:09;;;;;;;28.27;24.52;;;19.80;99.90;;;;;;5060222;28;20067;-77
2023/08/22 04:34:37;;;;;;;32.28;24.58;;;19.90;99.90;;;;;;5059189;28;20043;-77
2023/08/22 04:37:06;;;;;;;31.83;25.58;;;20.00;99.90;;;;;;5040451;28;20037;-75
2023/08/22 04:39:34;;;;;;;43.70;26.05;;;20.10;99.90;;;;;;5058242;28;20048;-77
2023/08/22 04:42:17;;;;;;;29.05;23.98;;;20.30;99.90;;;;;;5056029;28;20068;-76
2023/08/22 04:44:55;;;;;;;26.52;23.67;;;20.40;99.90;;;;;;5061262;28;20036;-76
2023/08/22 04:47:23;;;;;;;27.88;24.05;;;20.50;99.90;;;;;;5047138;28;20045;-75
2023/08/22 04:49:51;;;;;;;26.08;23.40;;;20.60;99.90;;;;;;5042858;28;20053;-74
2023/08/22 04:52:18;;;;;;;33.92;23.48;;;20.70;99.90;;;;;;5059798;28;20049;-76
2023/08/22 04:54:46;;;;;;;26.75;22.83;;;20.80;99.90;;;;;;5066009;28;20056;-78
2023/08/22 04:57:14;;;;;;;24.45;21.83;;;20.90;99.90;;;;;;5047319;28;20057;-77
2023/08/22 04:59:45;;;;;;;24.90;22.25;;;20.90;99.90;;;;;;5042313;28;20107;-74
2023/08/22 05:02:15;;;;;;;24.67;21.55;;;21.00;99.90;;;;;;5050250;28;20044;-78
2023/08/22 05:04:42;;;;;;;25.92;23.25;;;21.10;99.90;;;;;;5054033;28;20100;-76
2023/08/22 05:07:10;;;;;;;27.80;22.15;;;21.10;99.90;;;;;;5069819;28;20041;-78
2023/08/22 05:09:37;;;;;;;30.55;23.13;;;21.20;99.90;;;;;;5053469;28;20048;-76
2023/08/22 05:12:08;;;;;;;25.52;22.08;;;21.40;99.90;;;;;;5078139;28;20106;-76
2023/08/22 05:14:37;;;;;;;26.60;21.27;;;21.50;99.90;;;;;;5045167;28;20943;-78
2023/08/22 05:17:05;;;;;;;29.00;24.67;;;21.60;99.90;;;;;;5054075;28;20396;-74
2023/08/22 05:19:34;;;;;;;28.63;25.65;;;21.70;99.90;;;;;;5057172;28;20271;-77
2023/08/22 05:22:02;;;;;;;26.10;21.30;;;21.90;99.90;;;;;;5058783;28;20045;-76
2023/08/22 05:24:34;;;;;;;23.80;21.05;;;21.90;99.90;;;;;;5037456;28;20051;-77
2023/08/22 05:27:02;;;;;;;22.52;20.23;;;22.00;99.90;;;;;;5054313;28;20052;-77
2023/08/22 05:29:29;;;;;;;24.00;21.60;;;22.10;99.90;;;;;;5058007;28;20496;-75
2023/08/22 05:31:57;;;;;;;23.35;20.95;;;22.30;99.90;;;;;;5041412;28;20105;-74
2023/08/22 05:34:24;;;;;;;26.52;23.70;;;22.40;99.90;;;;;;5041387;28;20913;-77
2023/08/22 05:36:53;;;;;;;24.88;22.17;;;22.50;99.90;;;;;;5039988;28;20041;-76
2023/08/22 05:39:21;;;;;;;26.40;23.38;;;22.70;99.90;;;;;;5058912;28;20105;-76
2023/08/22 05:41:48;;;;;;;25.92;22.88;;;22.90;99.90;;;;;;5056802;28;20740;-78
2023/08/22 05:44:17;;;;;;;23.63;20.77;;;23.10;99.90;;;;;;5039310;28;20587;-74
2023/08/22 05:46:45;;;;;;;23.27;20.13;;;23.40;99.90;;;;;;5057683;28;20175;-75
2023/08/22 05:49:13;;;;;;;33.55;22.02;;;23.60;99.90;;;;;;5038305;28;20040;-79
2023/08/22 05:51:42;;;;;;;24.85;20.35;;;23.80;99.90;;;;;;5038451;28;20033;-76
2023/08/22 05:54:11;;;;;;;31.20;21.27;;;24.00;99.90;;;;;;5039188;28;20053;-76
2023/08/22 05:56:38;;;;;;;24.35;20.73;;;24.10;99.90;;;;;;5064901;28;20056;-79
2023/08/22 05:59:06;;;;;;;23.60;21.05;;;24.20;99.90;;;;;;5040710;28;20059;-77
2023/08/22 06:01:33;;;;;;;32.55;22.73;;;24.30;99.90;;;;;;5039513;28;20051;-78
2023/08/22 06:04:04;;;;;;;28.33;22.38;;;24.40;99.90;;;;;;5036094;28;20040;-75
2023/08/22 06:06:32;;;;;;;26.73;23.95;;;24.50;99.90;;;;;;5040002;28;20131;-75
2023/08/22 06:08:59;;;;;;;25.35;22.67;;;24.70;99.90;;;;;;5056872;28;20432;-76
2023/08/22 06:11:28;;;;;;;25.45;22.73;;;24.80;99.90;;;;;;5063658;28;20053;-77
2023/08/22 06:13:56;;;;;;;25.30;21.42;;;24.90;99.90;;;;;;5056486;28;20057;-76
2023/08/22 06:16:23;;;;;;;24.85;22.17;;;25.00;99.90;;;;;;5041962;28;20527;-76
2023/08/22 06:18:52;;;;;;;26.55;22.92;;;25.10;99.90;;;;;;5041482;28;20048;-75
2023/08/22 06:21:20;;;;;;;27.23;24.27;;;25.10;99.90;;;;;;5056880;28;20068;-75
2023/08/22 06:23:47;;;;;;;30.98;24.77;;;25.20;99.90;;;;;;5044044;28;20106;-74
2023/08/22 06:26:16;;;;;;;25.85;23.08;;;25.40;99.90;;;;;;5042231;28;20496;-75
2023/08/22 06:28:46;;;;;;;27.67;24.00;;;25.50;99.90;;;;;;5060684;28;20057;-76
2023/08/22 06:31:13;;;;;;;30.10;23.45;;;25.70;99.90;;;;;;5062997;28;20052;-74
2023/08/22 06:33:42;;;;;;;32.17;23.23;;;25.80;99.90;;;;;;5053848;28;20119;-74
2023/08/22 06:36:10;;;;;;;29.08;23.92;;;26.00;99.90;;;;;;5041619;28;20127;-76
2023/08/22 06:38:38;;;;;;;29.75;24.65;;;26.10;99.90;;;;;;5047815;28;20071;-78
2023/08/22 06:41:07;;;;;;;32.15;26.30;;;26.30;99.90;;;;;;5060448;28;20048;-75
2023/08/22 06:43:36;;;;;;;38.50;26.85;;;26.40;99.90;;;;;;5042304;28;20044;-78
2023/08/22 06:46:05;;;;;;;29.83;26.10;;;26.40;99.90;;;;;;5042981;28;20039;-79
2023/08/22 06:48:33;;;;;;;28.85;25.30;;;26.50;99.90;;;;;;5041421;28;20037;-76
2023/08/22 06:51:01;;;;;;;31.65;26.10;;;26.70;99.90;;;;;;5043764;28;20053;-77
2023/08/22 06:53:28;;;;;;;32.60;25.70;;;26.90;99.90;;;;;;5059409;28;20049;-77
2023/08/22 06:55:56;;;;;;;32.53;26.63;;;27.00;99.90;;;;;;5059388;28;20052;-75
2023/08/22 06:58:24;;;;;;;30.58;26.65;;;27.30;99.90;;;;;;5057567;28;20067;-77
2023/08/22 07:00:52;;;;;;;26.80;24.02;;;27.60;99.90;;;;;;5058876;28;20546;-75
2023/08/22 07:03:23;;;;;;;33.28;24.95;;;27.70;99.90;;;;;;5059582;28;20125;-77
2023/08/22 07:05:52;;;;;;;28.42;24.05;;;27.70;99.90;;;;;;5062700;28;20381;-73
2023/08/22 07:08:20;;;;;;;32.42;26.45;;;27.60;99.90;;;;;;5070032;28;20045;-77
2023/08/22 07:10:48;;;;;;;30.63;24.63;;;27.60;99.90;;;;;;5066685;28;20060;-77
2023/08/22 07:13:16;;;;;;;27.38;24.52;;;27.70;99.90;;;;;;5064625;28;20465;-76
2023/08/22 07:15:44;;;;;;;28.05;25.23;;;27.90;99.90;;;;;;5065066;28;21086;-77
2023/08/22 07:18:12;;;;;;;29.65;25.42;;;28.00;99.90;;;;;;5064840;28;20056;-77
2023/08/22 07:20:41;;;;;;;35.08;31.55;;;28.20;99.90;;;;;;5063065;28;20077;-76
2023/08/22 07:23:08;;;;;;;30.05;24.80;;;28.30;99.90;;;;;;5078780;28;20139;-76
2023/08/22 07:25:36;;;;;;;28.58;22.88;;;28.20;99.90;;;;;;5076333;28;20105;-73
2023/08/22 07:28:04;;;;;;;23.73;21.35;;;28.10;99.90;;;;;;5063114;28;20041;-76
2023/08/22 07:30:33;;;;;;;25.35;22.85;;;28.00;99.90;;;;;;5064693;28;20231;-75
2023/08/22 07:33:03;;;;;;;30.17;22.38;;;28.00;99.90;;;;;;5046180;28;20127;-76
2023/08/22 07:35:37;;;;;;;27.50;23.58;;;27.90;99.90;;;;;;5064598;28;20033;-78
2023/08/22 07:38:07;;;;;;;27.52;24.73;;;27.80;99.90;;;;;;5064909;28;20108;-78
2023/08/22 07:40:39;;;;;;;27.23;23.90;;;27.80;99.90;;;;;;5061758;28;20049;-76
2023/08/22 07:43:06;;;;;;;25.63;23.10;;;27.90;99.90;;;;;;5059229;28;20504;-78
2023/08/22 07:45:40;;;;;;;27.60;23.92;;;28.00;99.90;;;;;;5062489;28;20033;-84
2023/08/22 07:48:07;;;;;;;23.90;21.40;;;28.20;99.90;;;;;;5061314;28;20044;-74
2023/08/22 07:50:37;;;;;;;24.80;22.33;;;28.50;99.90;;;;;;5065456;28;20427;-76
2023/08/22 07:53:08;;;;;;;26.58;23.98;;;28.60;99.90;;;;;;5055931;28;20036;-76
2023/08/22 07:55:35;;;;;;;26.50;23.15;;;28.70;99.90;;;;;;5061569;28;20421;-74
2023/08/22 07:58:03;;;;;;;25.60;22.40;;;28.90;99.90;;;;;;5061544;28;20123;-77
2023/08/22 08:00:32;;;;;;;24.70;22.08;;;28.80;99.90;;;;;;5060509;28;20053;-76
2023/08/22 08:03:00;;;;;;;28.90;22.77;;;28.90;99.90;;;;;;5057779;28;20045;-76
2023/08/22 08:05:27;;;;;;;34.00;28.10;;;29.10;99.90;;;;;;5059262;28;20113;-75
2023/08/22 08:07:55;;;;;;;30.25;27.25;;;29.20;99.90;;;;;;5058343;28;20049;-77
2023/08/22 08:10:24;;;;;;;27.60;23.58;;;29.20;99.90;;;;;;5060234;28;20042;-75
2023/08/22 08:12:52;;;;;;;23.27;20.88;;;29.20;99.90;;;;;;5061377;28;20067;-76
2023/08/22 08:15:19;;;;;;;25.58;23.08;;;29.10;99.90;;;;;;5063311;28;20126;-75
2023/08/22 08:17:46;;;;;;;24.23;21.95;;;29.10;99.90;;;;;;5043517;28;20052;-75
2023/08/22 08:20:15;;;;;;;28.73;25.63;;;29.00;99.90;;;;;;5062839;28;20048;-76
2023/08/22 08:22:43;;;;;;;24.88;22.27;;;29.00;99.90;;;;;;5061532;28;20568;-74
2023/08/22 08:25:12;;;;;;;24.75;22.20;;;29.20;99.90;;;;;;5058487;28;20040;-75
2023/08/22 08:27:41;;;;;;;22.95;20.55;;;29.20;99.90;;;;;;5060014;28;20053;-75
2023/08/22 08:30:10;;;;;;;24.20;21.80;;;29.20;99.90;;;;;;5076166;28;20087;-75
2023/08/22 08:32:39;;;;;;;32.78;28.15;;;29.30;99.90;;;;;;5067964;28;20671;-78
2023/08/22 08:35:07;;;;;;;25.55;23.13;;;29.40;99.90;;;;;;5063182;28;20098;-77
2023/08/22 08:37:48;;;;;;;23.55;21.17;;;29.50;99.90;;;;;;5033679;28;20095;-75
2023/08/22 08:40:16;;;;;;;22.23;20.00;;;29.70;99.90;;;;;;5054822;28;20097;-76
2023/08/22 08:42:46;;;;;;;24.45;20.25;;;30.00;99.90;;;;;;5058411;28;20048;-77
2023/08/22 08:45:15;;;;;;;20.70;18.77;;;30.10;99.90;;;;;;5059381;28;20040;-76
2023/08/22 08:47:44;;;;;;;23.05;20.77;;;30.00;99.90;;;;;;5077818;28;20041;-76
2023/08/22 08:50:12;;;;;;;24.35;21.95;;;30.10;99.90;;;;;;5079796;28;20072;-76
2023/08/22 08:52:39;;;;;;;21.35;19.25;;;30.30;99.90;;;;;;5067738;28;20114;-75
2023/08/22 08:55:10;;;;;;;24.10;21.85;;;30.40;99.90;;;;;;5069985;28;20052;-74
2023/08/22 08:57:37;;;;;;;23.98;21.45;;;30.40;99.90;;;;;;5067460;28;20048;-76
2023/08/22 09:00:08;;;;;;;23.75;21.40;;;30.50;99.90;;;;;;5069089;28;20063;-76
2023/08/22 09:02:36;;;;;;;24.52;22.00;;;30.70;99.90;;;;;;5062116;28;20053;-76
2023/08/22 09:05:04;;;;;;;23.38;21.27;;;30.60;99.90;;;;;;5058193;28;20045;-76
2023/08/22 09:07:34;;;;;;;23.02;20.63;;;30.70;99.90;;;;;;5048157;28;20076;-75
2023/08/22 09:10:03;;;;;;;23.80;21.38;;;30.90;99.90;;;;;;5055267;28;20055;-75
2023/08/22 09:12:34;;;;;;;22.83;20.52;;;31.10;99.90;;;;;;5055211;28;20569;-76
2023/08/22 09:15:02;;;;;;;23.42;20.95;;;31.30;99.90;;;;;;5041614;28;20049;-76
2023/08/22 09:17:31;;;;;;;23.98;21.17;;;31.20;99.90;;;;;;5065696;28;20060;-75
2023/08/22 09:19:58;;;;;;;23.52;21.02;;;31.30;99.90;;;;;;5062771;28;20044;-77
2023/08/22 09:22:30;;;;;;;22.55;20.17;;;31.50;99.90;;;;;;5058460;28;20054;-76
2023/08/22 09:24:58;;;;;;;22.25;19.88;;;31.50;99.90;;;;;;5058746;28;20070;-77
2023/08/22 09:27:27;;;;;;;22.55;19.75;;;31.60;99.90;;;;;;5067410;28;20120;-77
2023/08/22 09:29:58;;;;;;;20.88;18.67;;;31.50;99.90;;;;;;5062087;28;20089;-74
2023/08/22 09:32:26;;;;;;;20.55;18.60;;;31.60;99.90;;;;;;5059078;28;20298;-76
2023/08/22 09:34:57;;;;;;;20.30;18.55;;;31.60;99.90;;;;;;5055398;28;20056;-76
2023/08/22 09:37:32;;;;;;;19.65;17.85;;;31.70;99.90;;;;;;5055885;28;20048;-76
2023/08/22 09:39:59;;;;;;;18.90;16.95;;;31.80;99.90;;;;;;5056297;28;20057;-77
2023/08/22 09:42:30;;;;;;;19.38;17.33;;;31.80;99.90;;;;;;5039812;28;20512;-76
2023/08/22 09:44:58;;;;;;;19.77;17.83;;;31.70;99.90;;;;;;5043553;28;20564;-75
2023/08/22 09:47:29;;;;;;;25.35;22.65;;;31.80;99.90;;;;;;5056548;28;20564;-78
2023/08/22 09:50:04;;;;;;;21.60;19.60;;;31.90;99.90;;;;;;5055147;28;20515;-78
2023/08/22 09:52:32;;;;;;;20.17;18.05;;;32.00;99.90;;;;;;5039635;28;20040;-76
2023/08/22 09:55:01;;;;;;;19.60;17.58;;;32.10;99.90;;;;;;5057901;28;20048;-76
2023/08/22 09:57:30;;;;;;;18.40;16.60;;;32.20;99.90;;;;;;5053279;28;20044;-76
2023/08/22 10:00:05;;;;;;;18.50;16.60;;;32.20;99.90;;;;;;5057118;28;20045;-77
2023/08/22 10:02:41;;;;;;;20.70;18.52;;;32.30;99.90;;;;;;5060520;28;20049;-77
2023/08/22 10:05:11;;;;;;;18.15;16.42;;;32.40;99.90;;;;;;5056333;28;20045;-76
2023/08/22 10:07:38;;;;;;;20.70;17.08;;;32.50;99.90;;;;;;5055283;28;20045;-76
2023/08/22 10:10:08;;;;;;;19.05;17.13;;;32.40;99.90;;;;;;5056249;28;20601;-76
2023/08/22 10:12:37;;;;;;;22.85;20.08;;;32.60;99.90;;;;;;5056198;28;20055;-77
2023/08/22 10:15:07;;;;;;;25.38;22.48;;;32.70;99.90;;;;;;5057006;28;20032;-75
2023/08/22 10:17:35;;;;;;;22.65;20.45;;;32.80;99.90;;;;;;5054918;28;20464;-76
2023/08/22 10:20:05;;;;;;;23.23;20.88;;;33.00;99.90;;;;;;5056279;28;20670;-77
2023/08/22 10:22:34;;;;;;;21.55;19.38;;;33.00;99.90;;;;;;5062798;28;20307;-76
2023/08/22 10:25:08;;;;;;;19.52;17.58;;;33.20;99.90;;;;;;5060581;28;20428;-76
2023/08/22 10:27:39;;;;;;;20.38;18.38;;;33.00;99.90;;;;;;5058740;28;20041;-77
2023/08/22 10:30:22;;;;;;;20.40;18.40;;;32.60;99.90;;;;;;5060894;28;20041;-78
2023/08/22 10:33:07;;;;;;;19.88;17.88;;;32.70;99.90;;;;;;5061706;28;20055;-78
2023/08/22 10:35:36;;;;;;;22.45;20.17;;;32.70;99.90;;;;;;5071755;28;20052;-77
2023/08/22 10:38:05;;;;;;;22.08;20.17;;;32.50;99.90;;;;;;5070662;28;20128;-76
2023/08/22 10:40:34;;;;;;;21.45;18.27;;;32.70;99.90;;;;;;5054670;28;20128;-77
2023/08/22 10:43:10;;;;;;;20.13;18.25;;;32.80;99.90;;;;;;5061897;28;20098;-77
2023/08/22 10:45:49;;;;;;;20.40;18.48;;;32.90;99.90;;;;;;5060059;28;20083;-76
2023/08/22 10:48:18;;;;;;;20.20;18.23;;;32.80;99.90;;;;;;5062374;28;20488;-76
2023/08/22 10:50:47;;;;;;;20.10;18.08;;;33.00;99.90;;;;;;5069058;28;20044;-76
2023/08/22 10:53:21;;;;;;;19.70;17.80;;;33.00;99.90;;;;;;5071305;28;20045;-77
2023/08/22 10:55:49;;;;;;;20.73;18.63;;;33.10;99.90;;;;;;5071322;28;20048;-78
2023/08/22 10:58:36;;;;;;;18.80;17.10;;;33.20;99.90;;;;;;5067008;28;20040;-80
2023/08/22 11:01:07;;;;;;;18.60;16.45;;;33.20;99.90;;;;;;5057846;28;20116;-78
2023/08/22 11:03:35;;;;;;;18.10;16.55;;;33.20;99.90;;;;;;5051038;28;20075;-76
2023/08/22 11:06:28;;;;;;;18.50;16.77;;;33.20;99.90;;;;;;5050581;28;20047;-77
2023/08/22 11:09:28;;;;;;;18.60;17.00;;;33.40;99.90;;;;;;4983430;28;20042;-80
2023/08/22 11:11:56;;;;;;;18.58;16.77;;;33.40;99.90;;;;;;5038949;28;20055;-79
2023/08/22 11:14:23;;;;;;;18.67;17.08;;;33.00;99.90;;;;;;5061774;28;20115;-79
2023/08/22 11:16:53;;;;;;;18.35;16.67;;;32.90;99.90;;;;;;5061418;28;20114;-77
2023/08/22 11:19:21;;;;;;;19.85;17.70;;;32.90;99.90;;;;;;5042590;28;20522;-80
2023/08/22 11:21:49;;;;;;;19.95;18.05;;;33.20;99.90;;;;;;5062763;28;20047;-79
2023/08/22 11:24:26;;;;;;;17.90;16.15;;;33.40;99.90;;;;;;5059613;28;20447;-79
2023/08/22 11:26:55;;;;;;;18.00;16.27;;;33.40;99.90;;;;;;5050212;28;20058;-77
2023/08/22 11:29:24;;;;;;;18.48;16.73;;;33.50;99.90;;;;;;5049038;28;20056;-78
2023/08/22 11:31:52;;;;;;;21.73;19.65;;;33.40;99.90;;;;;;5049936;28;20045;-79
2023/08/22 11:34:22;;;;;;;21.10;18.92;;;33.60;99.90;;;;;;5069435;28;20067;-80
2023/08/22 11:36:52;;;;;;;20.90;18.70;;;33.80;99.90;;;;;;5063146;28;20720;-80
2023/08/22 11:39:22;;;;;;;20.10;18.20;;;33.80;99.90;;;;;;5063442;28;20044;-77
2023/08/22 11:41:50;;;;;;;22.65;20.50;;;33.90;99.90;;;;;;5050400;28;20043;-77
2023/08/22 11:44:17;;;;;;;21.55;19.42;;;33.90;99.90;;;;;;5056825;28;20157;-78
2023/08/22 11:46:51;;;;;;;22.75;20.33;;;33.90;99.90;;;;;;5081241;28;20075;-77
2023/08/22 11:49:41;;;;;;;23.08;21.05;;;33.80;99.90;;;;;;5076873;28;20079;-78
2023/08/22 11:52:09;;;;;;;23.40;21.10;;;33.80;99.90;;;;;;5081813;28;20043;-77
2023/08/22 11:54:45;;;;;;;21.30;19.20;;;33.80;99.90;;;;;;5060034;28;20048;-76
2023/08/22 11:57:14;;;;;;;20.73;18.83;;;33.80;99.90;;;;;;5057516;28;20505;-78
2023/08/22 11:59:43;;;;;;;22.88;20.63;;;33.60;99.90;;;;;;5043449;28;20044;-78
2023/08/22 12:02:11;;;;;;;24.20;21.50;;;33.70;99.90;;;;;;5056486;28;20047;-78
2023/08/22 12:04:55;;;;;;;22.05;20.00;;;33.70;99.90;;;;;;5085145;28;20029;-80
2023/08/22 12:07:23;;;;;;;20.55;18.63;;;33.70;99.90;;;;;;5053475;28;20071;-78
2023/08/22 12:10:03;;;;;;;22.73;19.27;;;33.70;99.90;;;;;;5061220;28;20128;-76
2023/08/22 12:12:33;;;;;;;23.80;20.40;;;33.50;99.90;;;;;;5043815;28;20060;-76
2023/08/22 12:15:02;;;;;;;21.95;19.65;;;33.40;99.90;;;;;;5062461;28;20403;-78
2023/08/22 12:20:12;;;;;;;22.45;17.67;;;33.20;99.90;;;;;;5073740;22;20557;-79
2023/08/22 12:22:39;;;;;;;20.13;18.13;;;33.20;99.90;;;;;;5025273;28;20068;-80
2023/08/22 12:25:11;;;;;;;18.65;16.95;;;33.20;99.90;;;;;;5021711;28;20053;-81
2023/08/22 12:27:39;;;;;;;17.05;15.55;;;33.40;99.90;;;;;;5045374;28;20056;-79
2023/08/22 12:30:08;;;;;;;20.13;15.50;;;33.50;99.90;;;;;;5062571;28;20124;-84
2023/08/22 12:32:35;;;;;;;17.27;15.63;;;33.40;99.90;;;;;;5063095;28;20058;-79
2023/08/22 12:35:03;;;;;;;18.40;16.60;;;33.30;99.90;;;;;;5064048;28;20052;-78
2023/08/22 12:37:34;;;;;;;16.77;15.27;;;33.30;99.90;;;;;;5059514;28;20156;-80
2023/08/22 12:40:03;;;;;;;17.23;13.73;;;33.30;99.90;;;;;;5047415;28;20056;-79
2023/08/22 12:42:33;;;;;;;16.23;14.15;;;33.40;99.90;;;;;;5066822;28;20060;-78